createdAt,value
2023-08-28T00:01:05.811Z,0.30
2023-08-28T00:03:34.308Z,0.40
2023-08-28T00:06:02.958Z,0.10
2023-08-28T00:08:31.256Z,0.60
2023-08-28T00:10:59.617Z,0.63
2023-08-28T00:13:27.912Z,0.47
2023-08-28T00:15:57.810Z,0.40
2023-08-28T00:18:26.243Z,0.82
2023-08-28T00:20:54.766Z,0.63
2023-08-28T00:23:23.377Z,0.40
2023-08-28T00:25:51.665Z,0.40
2023-08-28T00:28:19.961Z,0.25
2023-08-28T00:30:48.725Z,0.50
2023-08-28T00:33:19.485Z,0.68
2023-08-28T00:35:47.980Z,0.38
2023-08-28T00:38:16.424Z,0.60
2023-08-28T00:40:45.516Z,0.55
2023-08-28T00:43:13.828Z,0.40
2023-08-28T00:45:45.343Z,0.60
2023-08-28T00:48:16.884Z,0.43
2023-08-28T00:50:47.273Z,0.32
2023-08-28T00:53:16.070Z,0.80
2023-08-28T00:55:46.397Z,0.63
2023-08-28T00:58:15.330Z,0.60
2023-08-28T01:00:43.861Z,0.40
2023-08-28T01:03:12.390Z,0.60
2023-08-28T01:05:49.075Z,0.60
2023-08-28T01:08:26.347Z,0.85
2023-08-28T01:10:59.917Z,0.80
2023-08-28T01:16:01.731Z,0.77
2023-08-28T01:18:30.497Z,0.80
2023-08-28T01:21:00.445Z,0.70
2023-08-28T01:23:34.015Z,0.68
2023-08-28T01:28:32.579Z,0.45
2023-08-28T01:31:01.045Z,0.98
2023-08-28T01:33:29.468Z,0.60
2023-08-28T01:36:08.047Z,0.60
2023-08-28T01:38:40.586Z,0.70
2023-08-28T01:41:12.578Z,0.98
2023-08-28T01:43:48.804Z,0.47
2023-08-28T01:46:18.391Z,0.70
2023-08-28T01:48:52.307Z,0.50
2023-08-28T01:51:21.076Z,0.47
2023-08-28T01:53:50.234Z,0.60
2023-08-28T01:56:22.339Z,0.50
2023-08-28T01:58:52.945Z,0.52
2023-08-28T02:01:22.080Z,0.60
2023-08-28T02:03:50.438Z,0.65
2023-08-28T02:06:19.102Z,0.30
2023-08-28T02:08:48.469Z,0.38
2023-08-28T02:11:17.064Z,0.22
2023-08-28T02:13:48.626Z,0.32
2023-08-28T02:16:18.402Z,0.60
2023-08-28T02:18:46.892Z,0.65
2023-08-28T02:21:15.255Z,0.50
2023-08-28T02:23:43.625Z,0.85
2023-08-28T02:26:11.914Z,0.88
2023-08-28T02:28:40.634Z,0.45
2023-08-28T02:31:10.452Z,0.52
2023-08-28T02:33:38.885Z,0.57
2023-08-28T02:36:07.404Z,0.60
2023-08-28T02:38:35.988Z,0.70
2023-08-28T02:41:06.213Z,0.75
2023-08-28T02:43:34.681Z,0.50
2023-08-28T02:46:04.042Z,0.55
2023-08-28T02:48:34.039Z,0.77
2023-08-28T02:51:02.576Z,0.40
2023-08-28T02:53:31.004Z,0.60
2023-08-28T02:56:23.725Z,0.57
2023-08-28T02:58:52.629Z,0.60
2023-08-28T03:01:21.513Z,0.40
2023-08-28T03:03:51.559Z,0.50
2023-08-28T03:06:20.233Z,0.82
2023-08-28T03:08:48.715Z,0.50
2023-08-28T03:11:18.003Z,0.50
2023-08-28T03:13:46.458Z,0.60
2023-08-28T03:16:14.993Z,0.60
2023-08-28T03:18:43.535Z,0.50
2023-08-28T03:21:13.488Z,0.63
2023-08-28T03:23:41.949Z,0.57
2023-08-28T03:26:10.541Z,0.35
2023-08-28T03:28:39.271Z,0.30
2023-08-28T03:31:07.636Z,0.52
2023-08-28T03:33:36.757Z,0.20
2023-08-28T03:36:05.848Z,0.47
2023-08-28T03:38:38.205Z,0.40
2023-08-28T03:41:09.910Z,0.55
2023-08-28T03:43:38.458Z,0.68
2023-08-28T03:46:06.996Z,0.50
2023-08-28T03:48:36.048Z,0.40
2023-08-28T03:51:04.441Z,0.70
2023-08-28T03:53:32.825Z,0.60
2023-08-28T03:56:02.675Z,0.60
2023-08-28T03:58:31.120Z,0.45
2023-08-28T04:00:59.466Z,0.50
2023-08-28T04:03:27.974Z,0.68
2023-08-28T04:05:56.352Z,0.22
2023-08-28T04:08:24.709Z,0.63
2023-08-28T04:10:53.716Z,0.45
2023-08-28T04:13:23.805Z,0.40
2023-08-28T04:15:52.378Z,0.30
2023-08-28T04:18:21.076Z,0.50
2023-08-28T04:20:50.353Z,0.30
2023-08-28T04:23:19.314Z,0.40
2023-08-28T04:25:47.735Z,0.30
2023-08-28T04:28:17.367Z,0.43
2023-08-28T04:30:47.782Z,0.55
2023-08-28T04:33:16.619Z,0.40
2023-08-28T04:35:44.949Z,0.50
2023-08-28T04:38:13.483Z,0.20
2023-08-28T04:40:43.979Z,0.30
2023-08-28T04:43:13.898Z,0.60
2023-08-28T04:45:42.357Z,0.57
2023-08-28T04:48:12.180Z,0.40
2023-08-28T04:50:40.658Z,0.40
2023-08-28T04:53:08.967Z,0.55
2023-08-28T04:55:40.712Z,0.40
2023-08-28T04:58:09.128Z,0.47
2023-08-28T05:00:37.489Z,0.32
2023-08-28T05:03:08.008Z,0.70
2023-08-28T05:05:38.267Z,0.47
2023-08-28T05:08:07.941Z,0.40
2023-08-28T05:10:36.391Z,0.55
2023-08-28T05:13:05.620Z,0.40
2023-08-28T05:15:36.440Z,0.55
2023-08-28T05:18:06.869Z,0.40
2023-08-28T05:20:35.289Z,0.38
2023-08-28T05:23:05.960Z,0.45
2023-08-28T05:25:34.955Z,0.55
2023-08-28T05:28:03.498Z,0.20
2023-08-28T05:30:32.013Z,0.40
2023-08-28T05:33:01.811Z,0.60
2023-08-28T05:35:30.880Z,0.28
2023-08-28T05:37:59.280Z,0.63
2023-08-28T05:40:29.967Z,0.40
2023-08-28T05:42:59.138Z,0.50
2023-08-28T05:45:28.473Z,0.40
2023-08-28T05:47:57.545Z,0.38
2023-08-28T05:50:26.069Z,0.80
2023-08-28T05:52:54.479Z,0.52
2023-08-28T05:55:22.933Z,0.50
2023-08-28T05:57:52.941Z,0.65
2023-08-28T06:00:21.538Z,1.02
2023-08-28T06:02:50.507Z,1.02
2023-08-28T06:05:20.041Z,0.50
2023-08-28T06:07:49.453Z,0.57
2023-08-28T06:10:20.978Z,0.88
2023-08-28T06:12:49.656Z,0.50
2023-08-28T06:15:20.066Z,0.65
2023-08-28T06:17:49.302Z,0.65
2023-08-28T06:20:17.873Z,0.77
2023-08-28T06:22:46.525Z,0.75
2023-08-28T06:25:15.292Z,0.98
2023-08-28T06:27:44.390Z,0.60
2023-08-28T06:30:13.882Z,0.60
2023-08-28T06:32:43.774Z,0.57
2023-08-28T06:35:12.331Z,0.60
2023-08-28T06:37:40.724Z,0.88
2023-08-28T06:40:10.813Z,0.38
2023-08-28T06:42:39.704Z,0.50
2023-08-28T06:45:11.078Z,0.30
2023-08-28T06:47:39.760Z,0.10
2023-08-28T06:50:10.465Z,0.40
2023-08-28T06:52:38.836Z,0.40
2023-08-28T06:55:07.888Z,0.35
2023-08-28T06:57:36.289Z,0.30
2023-08-28T07:00:07.099Z,0.30
2023-08-28T07:02:35.805Z,0.13
2023-08-28T07:05:04.308Z,0.15
2023-08-28T07:07:34.435Z,0.60
2023-08-28T07:10:02.970Z,0.40
2023-08-28T07:12:31.285Z,0.20
2023-08-28T07:15:23.496Z,0.22
2023-08-28T07:17:52.268Z,0.30
2023-08-28T07:20:21.708Z,0.50
2023-08-28T07:22:51.775Z,0.40
2023-08-28T07:25:23.795Z,0.57
2023-08-28T07:27:53.165Z,0.30
2023-08-28T07:30:21.928Z,0.50
2023-08-28T07:32:50.336Z,0.40
2023-08-28T07:35:19.028Z,0.40
2023-08-28T07:37:47.367Z,0.30
2023-08-28T07:40:17.492Z,0.30
2023-08-28T07:42:46.076Z,0.22
2023-08-28T07:45:14.425Z,0.52
2023-08-28T07:47:44.833Z,0.60
2023-08-28T07:50:14.286Z,0.52
2023-08-28T07:52:42.777Z,0.80
2023-08-28T07:55:11.680Z,0.50
2023-08-28T07:57:41.416Z,0.80
2023-08-28T08:00:11.623Z,0.82
2023-08-28T08:02:43.211Z,1.20
2023-08-28T08:05:12.905Z,0.50
2023-08-28T08:07:41.846Z,0.75
2023-08-28T08:10:11.226Z,0.60
2023-08-28T08:12:41.277Z,0.85
2023-08-28T08:15:10.981Z,0.80
2023-08-28T08:17:39.644Z,0.82
2023-08-28T08:20:11.925Z,0.90
2023-08-28T08:22:40.596Z,0.65
2023-08-28T08:25:10.580Z,0.90
2023-08-28T08:27:41.074Z,1.05
2023-08-28T08:30:10.811Z,1.25
2023-08-28T08:32:39.273Z,1.13
2023-08-28T08:35:08.438Z,1.25
2023-08-28T08:37:40.024Z,1.27
2023-08-28T08:40:17.900Z,1.30
2023-08-28T08:42:50.560Z,1.30
2023-08-28T08:45:20.870Z,2.13
2023-08-28T08:47:57.060Z,1.35
2023-08-28T08:50:28.492Z,2.15
2023-08-28T08:53:05.714Z,1.45
2023-08-28T08:55:42.334Z,1.73
2023-08-28T08:58:16.002Z,1.27
2023-08-28T09:03:16.062Z,1.17
2023-08-28T09:05:46.292Z,1.48
2023-08-28T09:08:17.512Z,1.33
2023-08-28T09:10:47.399Z,1.38
2023-08-28T09:13:17.335Z,1.10
2023-08-28T09:15:45.833Z,0.80
2023-08-28T09:18:14.802Z,0.75
2023-08-28T09:20:43.275Z,1.15
2023-08-28T09:23:11.789Z,1.30
2023-08-28T09:25:41.408Z,1.08
2023-08-28T09:28:15.337Z,0.73
2023-08-28T09:30:46.655Z,0.70
2023-08-28T09:33:15.223Z,1.20
2023-08-28T09:35:44.944Z,0.75
2023-08-28T09:38:14.169Z,1.58
2023-08-28T09:40:43.669Z,0.75
2023-08-28T09:43:14.498Z,0.73
2023-08-28T09:45:44.188Z,0.82
2023-08-28T09:48:17.128Z,0.90
2023-08-28T09:53:16.878Z,1.02
2023-08-28T09:55:49.338Z,1.10
2023-08-28T09:58:18.357Z,0.80
2023-08-28T10:00:47.774Z,1.20
2023-08-28T10:03:17.820Z,0.80
2023-08-28T10:05:47.890Z,1.00
2023-08-28T10:08:18.185Z,1.23
2023-08-28T10:10:49.144Z,0.77
2023-08-28T10:13:19.357Z,1.20
2023-08-28T10:15:56.115Z,1.10
2023-08-28T10:18:32.082Z,0.95
2023-08-28T10:21:02.503Z,1.05
2023-08-28T10:23:31.850Z,1.17
2023-08-28T10:26:01.608Z,1.42
2023-08-28T10:28:31.401Z,0.88
2023-08-28T10:31:01.103Z,1.00
2023-08-28T10:33:33.236Z,1.20
2023-08-28T10:36:04.306Z,0.90
2023-08-28T10:38:35.568Z,1.10
2023-08-28T10:41:09.338Z,1.10
2023-08-28T10:43:38.404Z,0.80
2023-08-28T10:46:07.390Z,1.00
2023-08-28T10:48:40.345Z,1.52
2023-08-28T10:51:13.496Z,1.02
2023-08-28T10:53:42.434Z,0.80
2023-08-28T10:56:13.671Z,0.85
2023-08-28T10:58:42.244Z,0.60
2023-08-28T11:01:16.580Z,0.80
2023-08-28T11:03:59.982Z,0.98
2023-08-28T11:06:44.193Z,0.65
2023-08-28T11:09:41.097Z,0.80
2023-08-28T11:12:28.429Z,1.23
2023-08-28T11:15:01.268Z,0.82
2023-08-28T11:17:33.705Z,0.98
2023-08-28T11:20:13.892Z,0.90
2023-08-28T11:22:44.284Z,1.13
2023-08-28T11:25:14.024Z,0.60
2023-08-28T11:27:48.043Z,0.52
2023-08-28T11:30:18.267Z,0.80
2023-08-28T11:32:48.049Z,0.85
2023-08-28T11:35:19.359Z,0.65
2023-08-28T11:37:50.820Z,1.08
2023-08-28T11:40:20.879Z,0.88
2023-08-28T11:42:50.387Z,0.60
2023-08-28T11:45:25.963Z,0.88
2023-08-28T11:47:55.386Z,0.57
2023-08-28T11:50:26.808Z,1.00
2023-08-28T11:52:55.797Z,0.70
2023-08-28T11:55:24.340Z,0.60
2023-08-28T11:57:53.143Z,0.70
2023-08-28T12:00:23.290Z,0.75
2023-08-28T12:02:51.790Z,0.90
2023-08-28T12:05:21.010Z,1.20
2023-08-28T12:07:51.799Z,1.15
2023-08-28T12:10:22.788Z,0.93
2023-08-28T12:12:56.243Z,1.30
2023-08-28T12:15:34.277Z,1.35
2023-08-28T12:18:04.734Z,0.93
2023-08-28T12:20:34.745Z,0.63
2023-08-28T12:23:05.247Z,0.75
2023-08-28T12:25:35.656Z,0.93
2023-08-28T12:28:09.269Z,0.65
2023-08-28T12:33:10.463Z,0.82
2023-08-28T12:35:40.351Z,1.00
2023-08-28T12:38:10.210Z,0.88
2023-08-28T12:40:39.083Z,0.77
2023-08-28T12:43:11.126Z,0.80
2023-08-28T12:45:39.686Z,1.42
2023-08-28T12:48:09.022Z,1.13
2023-08-28T12:50:37.748Z,0.52
2023-08-28T12:53:07.128Z,1.23
2023-08-28T12:55:37.836Z,0.93
2023-08-28T12:58:06.420Z,0.75
2023-08-28T13:00:34.740Z,0.85
2023-08-28T13:03:05.052Z,0.95
2023-08-28T13:05:34.069Z,0.90
2023-08-28T13:08:02.915Z,0.70
2023-08-28T13:10:32.286Z,1.35
2023-08-28T13:13:03.480Z,1.05
2023-08-28T13:15:33.172Z,0.85
2023-08-28T13:18:03.721Z,1.30
2023-08-28T13:20:32.449Z,1.10
2023-08-28T13:23:00.891Z,0.88
2023-08-28T13:25:29.577Z,0.85
2023-08-28T13:27:58.109Z,0.57
2023-08-28T13:30:28.115Z,0.95
2023-08-28T13:32:57.952Z,0.80
2023-08-28T13:35:26.948Z,0.60
2023-08-28T13:37:56.302Z,0.70
2023-08-28T13:40:25.165Z,0.80
2023-08-28T13:42:53.766Z,1.10
2023-08-28T13:45:22.355Z,1.30
2023-08-28T13:47:52.567Z,0.55
2023-08-28T13:50:20.979Z,0.80
2023-08-28T13:52:49.642Z,0.82
2023-08-28T13:55:18.194Z,0.68
2023-08-28T13:57:47.038Z,0.70
2023-08-28T14:00:15.922Z,0.60
2023-08-28T14:02:45.128Z,0.80
2023-08-28T14:05:15.011Z,0.63
2023-08-28T14:07:44.316Z,0.50
2023-08-28T14:10:13.075Z,0.77
2023-08-28T14:12:41.484Z,0.82
2023-08-28T14:15:10.235Z,0.73
2023-08-28T14:17:38.764Z,0.90
2023-08-28T14:20:10.321Z,0.73
2023-08-28T14:22:41.225Z,0.57
2023-08-28T14:25:11.360Z,0.65
2023-08-28T14:27:53.292Z,0.50
2023-08-28T14:30:25.493Z,1.05
2023-08-28T14:32:53.927Z,0.77
2023-08-28T14:35:22.509Z,0.77
2023-08-28T14:37:52.326Z,0.65
2023-08-28T14:40:32.518Z,0.75
2023-08-28T14:43:09.447Z,1.10
2023-08-28T14:45:38.859Z,0.85
2023-08-28T14:48:08.551Z,0.60
2023-08-28T14:50:37.539Z,1.13
2023-08-28T14:53:07.865Z,0.68
2023-08-28T14:55:36.699Z,0.50
2023-08-28T14:58:06.141Z,0.50
2023-08-28T15:00:35.869Z,0.75
2023-08-28T15:03:05.450Z,0.65
2023-08-28T15:05:35.216Z,0.70
2023-08-28T15:08:15.849Z,0.75
2023-08-28T15:10:48.060Z,0.70
2023-08-28T15:13:17.673Z,0.68
2023-08-28T15:15:50.118Z,0.80
2023-08-28T15:18:19.489Z,0.70
2023-08-28T15:20:48.536Z,0.55
2023-08-28T15:23:17.769Z,0.73
2023-08-28T15:25:47.634Z,0.73
2023-08-28T15:28:16.482Z,0.95
2023-08-28T15:30:45.054Z,0.77
2023-08-28T15:33:14.383Z,0.90
2023-08-28T15:35:42.923Z,0.68
2023-08-28T15:38:11.594Z,1.02
2023-08-28T15:40:40.138Z,0.82
2023-08-28T15:43:10.216Z,1.20
2023-08-28T15:45:38.936Z,0.90
2023-08-28T15:48:08.297Z,1.20
2023-08-28T15:50:36.805Z,0.80
2023-08-28T15:53:05.828Z,0.60
2023-08-28T15:55:34.493Z,0.82
2023-08-28T15:58:03.006Z,0.70
2023-08-28T16:00:32.997Z,1.27
2023-08-28T16:03:01.706Z,0.80
2023-08-28T16:05:30.598Z,1.27
2023-08-28T16:07:59.088Z,1.13
2023-08-28T16:10:27.864Z,1.60
2023-08-28T16:12:56.314Z,1.10
2023-08-28T16:15:25.034Z,1.00
2023-08-28T16:17:55.219Z,0.80
2023-08-28T16:20:27.565Z,1.10
2023-08-28T16:22:56.399Z,1.13
2023-08-28T16:25:25.235Z,1.58
2023-08-28T16:27:53.766Z,2.35
2023-08-28T16:30:22.499Z,1.60
2023-08-28T16:32:51.649Z,1.13
2023-08-28T16:35:21.747Z,1.20
2023-08-28T16:37:50.164Z,1.10
2023-08-28T16:40:18.562Z,1.10
2023-08-28T16:42:46.897Z,1.13
2023-08-28T16:45:15.229Z,1.05
2023-08-28T16:47:43.625Z,0.88
2023-08-28T16:50:12.605Z,0.65
2023-08-28T16:52:42.508Z,0.93
2023-08-28T16:55:11.667Z,0.77
2023-08-28T16:57:40.103Z,0.82
2023-08-28T17:00:11.780Z,1.60
2023-08-28T17:02:41.673Z,2.17
2023-08-28T17:05:10.278Z,1.88
2023-08-28T17:07:38.659Z,0.88
2023-08-28T17:10:09.705Z,1.48
2023-08-28T17:12:38.277Z,2.17
2023-08-28T17:15:07.831Z,2.25
2023-08-28T17:17:36.778Z,2.40
2023-08-28T17:20:06.405Z,2.45
2023-08-28T17:22:34.760Z,2.40
2023-08-28T17:25:03.153Z,2.40
2023-08-28T17:27:32.823Z,2.42
2023-08-28T17:30:01.512Z,2.30
2023-08-28T17:32:30.063Z,2.35
2023-08-28T17:34:58.435Z,2.03
2023-08-28T17:37:26.878Z,2.20
2023-08-28T17:39:55.285Z,2.53
2023-08-28T17:42:24.810Z,2.30
2023-08-28T17:44:54.674Z,2.30
2023-08-28T17:47:23.055Z,1.77
2023-08-28T17:49:57.106Z,1.88
2023-08-28T17:52:26.782Z,1.67
2023-08-28T17:54:56.855Z,1.58
2023-08-28T17:57:25.938Z,1.60
2023-08-28T17:59:55.885Z,1.50
2023-08-28T18:02:24.365Z,1.92
2023-08-28T18:04:52.816Z,1.15
2023-08-28T18:07:24.627Z,1.30
2023-08-28T18:09:53.025Z,1.45
2023-08-28T18:12:21.694Z,1.65
2023-08-28T18:14:50.236Z,1.10
2023-08-28T18:17:20.235Z,1.77
2023-08-28T18:19:48.824Z,1.30
2023-08-28T18:22:17.081Z,1.08
2023-08-28T18:24:45.518Z,0.93
2023-08-28T18:27:13.827Z,1.20
2023-08-28T18:29:42.319Z,0.68
2023-08-28T18:32:10.779Z,0.70
2023-08-28T18:34:40.618Z,0.80
2023-08-28T18:37:09.045Z,0.85
2023-08-28T18:39:37.428Z,0.90
2023-08-28T18:42:09.336Z,0.70
2023-08-28T18:44:38.566Z,0.70
2023-08-28T18:47:07.190Z,1.13
2023-08-28T18:49:35.873Z,0.95
2023-08-28T18:52:06.487Z,1.10
2023-08-28T18:54:35.172Z,1.00
2023-08-28T18:57:05.031Z,0.80
2023-08-28T18:59:34.264Z,1.00
2023-08-28T19:02:02.560Z,0.90
2023-08-28T19:04:31.541Z,0.85
2023-08-28T19:06:59.949Z,0.80
2023-08-28T19:09:30.406Z,1.27
2023-08-28T19:11:58.934Z,1.02
2023-08-28T19:14:27.354Z,1.00
2023-08-28T19:16:55.836Z,1.15
2023-08-28T19:19:24.155Z,0.90
2023-08-28T19:21:52.540Z,1.73
2023-08-28T19:24:20.846Z,1.05
2023-08-28T19:26:50.794Z,1.02
2023-08-28T19:29:19.186Z,1.00
2023-08-28T19:31:47.843Z,0.50
2023-08-28T19:34:16.825Z,1.00
2023-08-28T19:36:45.247Z,1.25
2023-08-28T19:39:14.954Z,0.80
2023-08-28T19:41:43.337Z,0.68
2023-08-28T19:44:13.062Z,1.25
2023-08-28T19:46:43.640Z,0.60
2023-08-28T19:49:12.946Z,0.80
2023-08-28T19:51:41.612Z,0.80
2023-08-28T19:54:12.156Z,1.10
2023-08-28T19:56:40.738Z,0.70
2023-08-28T19:59:09.124Z,0.50
2023-08-28T20:01:39.111Z,0.60
2023-08-28T20:04:07.954Z,0.65
2023-08-28T20:06:36.539Z,0.70
2023-08-28T20:09:07.348Z,0.50
2023-08-28T20:11:35.945Z,0.80
2023-08-28T20:14:04.280Z,0.32
2023-08-28T20:16:32.992Z,0.50
2023-08-28T20:19:02.733Z,0.57
2023-08-28T20:21:31.182Z,0.65
2023-08-28T20:23:59.521Z,0.60
2023-08-28T20:26:27.931Z,0.40
2023-08-28T20:28:56.443Z,0.70
2023-08-28T20:31:25.177Z,0.50
2023-08-28T20:33:53.672Z,0.63
2023-08-28T20:36:23.411Z,0.88
2023-08-28T20:38:51.841Z,0.65
2023-08-28T20:41:20.181Z,0.38
2023-08-28T20:43:48.564Z,0.75
2023-08-28T20:46:17.000Z,0.60
2023-08-28T20:48:46.472Z,0.45
2023-08-28T20:51:14.886Z,0.70
2023-08-28T20:53:45.040Z,0.70
2023-08-28T20:56:13.630Z,0.70
2023-08-28T20:58:42.160Z,0.68
2023-08-28T21:01:10.667Z,0.80
2023-08-28T21:03:39.030Z,0.70
2023-08-28T21:06:07.483Z,0.63
2023-08-28T21:08:35.788Z,0.60
2023-08-28T21:11:05.796Z,1.13
2023-08-28T21:13:34.154Z,0.70
2023-08-28T21:16:02.889Z,0.88
2023-08-28T21:18:31.391Z,1.20
2023-08-28T21:21:02.750Z,0.93
2023-08-28T21:23:31.204Z,0.50
2023-08-28T21:26:00.664Z,0.95
2023-08-28T21:28:31.873Z,0.65
2023-08-28T21:31:01.990Z,0.77
2023-08-28T21:33:31.445Z,1.10
2023-08-28T21:36:00.718Z,0.75
2023-08-28T21:38:29.064Z,0.90
2023-08-28T21:40:59.262Z,0.45
2023-08-28T21:43:28.716Z,0.52
2023-08-28T21:46:01.105Z,0.88
2023-08-28T21:48:32.235Z,0.80
2023-08-28T21:51:19.295Z,0.90
2023-08-28T21:54:06.697Z,0.90
2023-08-28T21:56:53.475Z,0.50
2023-08-28T21:59:40.333Z,1.08
2023-08-28T22:02:29.711Z,0.75
2023-08-28T22:05:16.906Z,0.80
2023-08-28T22:07:45.404Z,0.90
2023-08-28T22:10:34.098Z,0.80
2023-08-28T22:13:31.995Z,0.77
2023-08-28T22:16:00.563Z,0.93
2023-08-28T22:18:30.607Z,0.95
2023-08-28T22:20:59.420Z,0.77
2023-08-28T22:23:28.153Z,1.15
2023-08-28T22:25:57.143Z,0.80
2023-08-28T22:28:25.637Z,1.15
2023-08-28T22:30:54.804Z,0.90
2023-08-28T22:33:23.175Z,0.80
2023-08-28T22:35:53.097Z,1.00
2023-08-28T22:38:21.586Z,0.98
2023-08-28T22:40:49.997Z,0.80
2023-08-28T22:43:18.522Z,1.00
2023-08-28T22:45:46.955Z,0.80
2023-08-28T22:48:15.334Z,0.82
2023-08-28T22:50:43.895Z,1.00
2023-08-28T22:53:13.608Z,0.63
2023-08-28T22:55:42.015Z,0.93
2023-08-28T22:58:10.314Z,0.68
2023-08-28T23:00:38.836Z,0.70
2023-08-28T23:03:07.517Z,0.57
2023-08-28T23:05:36.853Z,0.82
2023-08-28T23:08:05.985Z,0.80
2023-08-28T23:10:36.468Z,0.80
2023-08-28T23:13:05.092Z,0.70
2023-08-28T23:15:35.810Z,0.60
2023-08-28T23:18:04.719Z,0.57
2023-08-28T23:20:35.361Z,0.90
2023-08-28T23:23:03.775Z,0.70
2023-08-28T23:25:32.275Z,0.63
2023-08-28T23:28:06.941Z,0.82
2023-08-28T23:30:35.599Z,0.82
2023-08-28T23:33:05.211Z,1.02
2023-08-28T23:35:33.796Z,0.75
2023-08-28T23:38:02.267Z,0.70
2023-08-28T23:40:32.102Z,0.50
2023-08-28T23:43:01.841Z,0.70
2023-08-28T23:45:30.311Z,0.60
2023-08-28T23:47:58.786Z,0.57
2023-08-28T23:50:27.553Z,0.70
2023-08-28T23:52:55.883Z,0.85
2023-08-28T23:55:24.275Z,0.70
2023-08-28T23:57:53.592Z,0.30
